Item Display Status Inductive CT Sensor

Mooring Depth: 120 m

 

Deployed Sensor

  • Serial Number: 4824
  • NDBC Property Number: 26483
  • Start Date: 11/5/2018 (13:33:04 Z)
  • End Date: 7/15/2020 (12:00:00 Z)
Water Temperature [°C]     6 entries per hour
Showing data from 3/30/2020 (02:00:00 Z) to 3/29/2020 (00:00:01 Z)
Previous Next [ Day | 3-Days | 7-Days ]
First Last
Prev [ Day | 3-Days | 7-Days ] Next
First Last

Start Time:     :
End Time:     :     
Time (in GMT) :00 :50 :40 :30 :20 :10
Previous Next [ Day | 3-Days | 7-Days ]
First Last
Prev [ Day | 3-Days | 7-Days ] Next
First Last


123 => good data
MM => data is determined as missing
-- => data not received/configured
Back to Top Back to Top
3/30/2020 02:00 to 1:10 14.237 14.233 14.220 14.263 14.293 14.266
3/30/2020 01:00 to 0:10 14.416 14.408 14.344 14.389 14.355 14.440
3/30/2020 00:00 to 23:10 14.508 14.482 14.451 14.554 14.544 14.531
3/29/2020 23:00 to 22:10 14.548 14.543 14.533 14.532 14.526 14.550
3/29/2020 22:00 to 21:10 14.533 14.526 14.559 14.590 14.566 14.591
3/29/2020 21:00 to 20:10 14.576 14.569 14.577 14.571 14.562 14.575
3/29/2020 20:00 to 19:10 14.512 14.582 14.586 14.476 14.590 14.538
3/29/2020 19:00 to 18:10 14.466 14.497 14.386 14.484 14.263 14.275
3/29/2020 18:00 to 17:10 14.285 14.338 14.411 14.427 14.398 14.493
3/29/2020 17:00 to 16:10 14.501 14.476 14.567 14.328 14.466 14.515
3/29/2020 16:00 to 15:10 -- -- 14.630 14.634 14.635 14.633
3/29/2020 15:00 to 14:10 14.676 14.685 14.642 14.648 14.635 14.649
3/29/2020 14:00 to 13:10 14.727 14.651 14.665 14.641 14.651 14.663
3/29/2020 13:00 to 12:10 14.670 14.666 14.666 14.677 14.674 14.671
3/29/2020 12:00 to 11:10 14.664 14.660 14.661 14.654 14.627 14.646
3/29/2020 11:00 to 10:10 14.635 14.658 14.634 14.633 14.668 14.615
3/29/2020 10:00 to 9:10 14.637 14.625 14.624 14.643 14.647 14.696
3/29/2020 09:00 to 8:10 14.672 14.674 14.670 14.675 14.626 14.616
3/29/2020 08:00 to 7:10 14.637 14.653 14.645 14.627 14.603 14.527
3/29/2020 07:00 to 6:10 14.503 14.556 14.548 14.641 14.639 14.639
3/29/2020 06:00 to 5:10 14.636 14.646 14.648 14.635 14.550 14.646
3/29/2020 05:00 to 4:10 14.645 14.647 14.647 14.637 14.635 14.645
3/29/2020 04:00 to 3:10 14.648 14.631 14.627 14.625 14.635 14.626
3/29/2020 03:00 to 2:10 14.626 14.627 14.641 14.626 14.629 14.633
3/29/2020 02:00 to 1:10 14.628 14.628 14.636 14.646 14.563 14.486
3/29/2020 01:00 to 0:10 14.503 14.516 14.487 14.549 14.478 14.511

 

 

 

Conductivity [S/m]     6 entries per hour
Showing data from 3/30/2020 (02:00:00 Z) to 3/29/2020 (00:00:01 Z)
Previous Next [ Day | 3-Days | 7-Days ]
First Last
Prev [ Day | 3-Days | 7-Days ] Next
First Last

Start Time:     :
End Time:     :     
Time (in GMT) :00 :50 :40 :30 :20 :10
Previous Next [ Day | 3-Days | 7-Days ]
First Last
Prev [ Day | 3-Days | 7-Days ] Next
First Last


123 => good data
MM => data is determined as missing
-- => data not received/configured
Back to Top Back to Top
3/30/2020 02:00 to 1:10 4.21744 4.21832 4.21616 4.22213 4.22377 4.22136
3/30/2020 01:00 to 0:10 4.24113 4.23836 4.23045 4.23514 4.23164 4.24070
3/30/2020 00:00 to 23:10 4.24573 4.24593 4.24391 4.25265 4.25014 4.24724
3/29/2020 23:00 to 22:10 4.25044 4.24886 4.24716 4.24628 4.24413 4.24926
3/29/2020 22:00 to 21:10 4.24601 4.24433 4.25099 4.25547 4.25208 4.25613
3/29/2020 21:00 to 20:10 4.25380 4.25223 4.25331 4.25139 4.24790 4.25242
3/29/2020 20:00 to 19:10 4.24822 4.25389 4.25438 4.24469 4.25495 4.24986
3/29/2020 19:00 to 18:10 4.24331 4.24616 4.23507 4.24486 4.22119 4.22335
3/29/2020 18:00 to 17:10 4.22371 4.22842 4.23681 4.23828 4.23439 4.24597
3/29/2020 17:00 to 16:10 4.24669 4.24450 4.25474 4.22830 4.24499 4.24733
3/29/2020 16:00 to 15:10 4.25794 4.25751 4.25621 4.25681 4.25627 4.25619
3/29/2020 15:00 to 14:10 4.25309 4.25900 4.25734 4.25830 4.25446 4.25773
3/29/2020 14:00 to 13:10 4.26497 4.25664 4.26097 4.25521 4.25672 4.25853
3/29/2020 13:00 to 12:10 4.25905 4.26069 4.26059 4.26313 4.26255 4.26255
3/29/2020 12:00 to 11:10 4.25990 4.25924 4.25997 4.25828 4.25335 4.25950
3/29/2020 11:00 to 10:10 4.25918 4.25999 4.25397 4.25408 4.26170 4.25779
3/29/2020 10:00 to 9:10 4.25860 4.25824 4.25275 4.25390 4.25427 4.25924
3/29/2020 09:00 to 8:10 4.25557 4.25467 4.25619 4.25631 4.25156 4.25128
3/29/2020 08:00 to 7:10 4.25245 4.25869 4.26025 4.25681 4.25547 4.24922
3/29/2020 07:00 to 6:10 4.24737 4.25227 4.25266 4.25721 4.25736 4.25922
3/29/2020 06:00 to 5:10 4.25892 4.25758 4.25745 4.25897 4.25122 4.25770
3/29/2020 05:00 to 4:10 4.25924 4.25753 4.25743 4.25523 4.25459 4.25676
3/29/2020 04:00 to 3:10 4.25437 4.25324 4.25292 4.25269 4.25568 4.25297
3/29/2020 03:00 to 2:10 4.25320 4.25312 4.25461 4.25316 4.25380 4.25405
3/29/2020 02:00 to 1:10 4.25354 4.25939 4.25941 4.25824 4.25218 4.24446
3/29/2020 01:00 to 0:10 4.24714 4.24724 4.24759 4.25199 4.24322 4.24697

 

 

 

Salinity [psu]     6 entries per hour
Showing data from 3/30/2020 (02:00:00 Z) to 3/29/2020 (00:00:01 Z)
Previous Next [ Day | 3-Days | 7-Days ]
First Last
Prev [ Day | 3-Days | 7-Days ] Next
First Last

Start Time:     :
End Time:     :     
Time (in GMT) :00 :50 :40 :30 :20 :10
Previous Next [ Day | 3-Days | 7-Days ]
First Last
Prev [ Day | 3-Days | 7-Days ] Next
First Last


123 => good data
MM => data is determined as missing
-- => data not received/configured
Back to Top Back to Top
3/30/2020 02:00 to 1:10 34.96 34.97 34.96 34.98 34.96 34.96
3/30/2020 01:00 to 0:10 35.01 34.99 34.98 34.98 34.98 34.99
3/30/2020 00:00 to 23:10 34.97 35.00 35.01 34.99 34.98 34.96
3/29/2020 23:00 to 22:10 34.98 34.97 34.96 34.96 34.94 34.97
3/29/2020 22:00 to 21:10 34.95 34.94 34.97 34.99 34.98 34.99
3/29/2020 21:00 to 20:10 34.98 34.98 34.98 34.97 34.94 34.97
3/29/2020 20:00 to 19:10 34.99 34.98 34.98 34.99 34.98 34.98
3/29/2020 19:00 to 18:10 34.99 34.99 34.98 34.99 34.97 34.98
3/29/2020 18:00 to 17:10 34.97 34.97 34.98 34.98 34.97 34.99
3/29/2020 17:00 to 16:10 34.99 34.99 35.00 34.97 35.00 34.98
3/29/2020 16:00 to 15:10 -- -- 34.96 34.96 34.95 34.95
3/29/2020 15:00 to 14:10 34.89 34.93 34.96 34.96 34.94 34.96
3/29/2020 14:00 to 13:10 34.95 34.94 34.97 34.94 34.94 34.95
3/29/2020 13:00 to 12:10 34.95 34.97 34.97 34.98 34.98 34.98
3/29/2020 12:00 to 11:10 34.96 34.96 34.96 34.96 34.93 34.97
3/29/2020 11:00 to 10:10 34.98 34.97 34.93 34.94 34.97 34.99
3/29/2020 10:00 to 9:10 34.97 34.98 34.93 34.93 34.93 34.93
3/29/2020 09:00 to 8:10 34.91 34.90 34.92 34.92 34.92 34.93
3/29/2020 08:00 to 7:10 34.92 34.96 34.98 34.97 34.98 34.99
3/29/2020 07:00 to 6:10 34.99 34.99 35.00 34.96 34.96 34.98
3/29/2020 06:00 to 5:10 34.98 34.96 34.95 34.98 34.98 34.96
3/29/2020 05:00 to 4:10 34.97 34.96 34.95 34.94 34.94 34.95
3/29/2020 04:00 to 3:10 34.93 34.93 34.93 34.93 34.95 34.93
3/29/2020 03:00 to 2:10 34.93 34.93 34.93 34.93 34.94 34.94
3/29/2020 02:00 to 1:10 34.94 34.99 34.98 34.96 34.98 34.98
3/29/2020 01:00 to 0:10 34.99 34.98 35.01 34.99 34.98 34.98